Time;durP1;ratioP1;P1;durP2;ratioP2;P2;SDS_P1;SDS_P2;PMS_P1;PMS_P2;Temp;Humidity;BMP_temperature;BMP_pressure;BME280_temperature;BME280_humidity;BME280_pressure;Samples;Min_cycle;Max_cycle;Signal;HPM_P1;HPM_P2
2023/07/05 00:00:23;;;;;;;17.67;13.77;;;11.20;99.90;;;;;;8366187;28;20268;-66
2023/07/05 00:04:24;;;;;;;17.40;13.07;;;11.20;99.90;;;;;;8364550;28;20208;-66
2023/07/05 00:08:24;;;;;;;16.33;12.67;;;11.20;99.90;;;;;;8354840;28;20200;-67
2023/07/05 00:12:25;;;;;;;19.13;13.83;;;11.10;99.90;;;;;;8348419;28;20247;-66
2023/07/05 00:16:26;;;;;;;20.30;14.73;;;11.10;99.90;;;;;;8354963;28;20205;-67
2023/07/05 00:20:27;;;;;;;21.13;15.50;;;11.00;99.90;;;;;;8349805;28;20276;-67
2023/07/05 00:24:28;;;;;;;19.57;14.93;;;10.90;99.90;;;;;;8355532;28;20184;-67
2023/07/05 00:28:29;;;;;;;18.13;12.80;;;10.90;99.90;;;;;;8362342;28;20185;-68
2023/07/05 00:32:30;;;;;;;16.70;12.77;;;10.80;99.90;;;;;;8366541;28;20190;-67
2023/07/05 00:36:31;;;;;;;17.77;12.67;;;10.70;99.90;;;;;;8367015;28;20206;-67
2023/07/05 00:40:32;;;;;;;15.53;12.37;;;10.60;99.90;;;;;;8354056;28;20182;-67
2023/07/05 00:44:33;;;;;;;17.90;13.57;;;10.50;99.90;;;;;;8363944;28;20184;-67
2023/07/05 00:48:49;;;;;;;19.63;14.30;;;10.40;99.90;;;;;;8366141;28;20215;-67
2023/07/05 00:52:51;;;;;;;19.87;13.80;;;10.40;1.00;;;;;;8350270;28;20185;-66
2023/07/05 00:57:02;;;;;;;18.93;13.73;;;10.30;1.00;;;;;;8364070;28;20217;-67
2023/07/05 01:01:04;;;;;;;21.63;14.03;;;10.30;1.00;;;;;;8356918;28;20269;-67
2023/07/05 01:05:07;;;;;;;20.70;14.87;;;10.20;1.00;;;;;;8364973;28;20202;-65
2023/07/05 01:09:09;;;;;;;21.93;14.43;;;10.20;99.90;;;;;;8350182;28;20190;-66
2023/07/05 01:13:28;;;;;;;17.00;12.07;;;10.10;99.90;;;;;;8347366;28;20281;-67
2023/07/05 01:17:52;;;;;;;16.53;11.97;;;10.10;98.20;;;;;;8353497;28;20203;-65
2023/07/05 01:22:00;;;;;;;17.37;12.63;;;9.90;28.30;;;;;;8353447;28;20216;-68
2023/07/05 01:26:24;;;;;;;17.43;11.20;;;9.80;66.60;;;;;;8370956;28;20201;-67
2023/07/05 01:30:58;;;;;;;16.87;12.90;;;9.70;99.90;;;;;;8366414;28;20192;-68
2023/07/05 01:35:25;;;;;;;17.53;13.17;;;9.70;99.90;;;;;;8371070;28;20185;-68
2023/07/05 01:39:25;;;;;;;21.47;15.23;;;9.60;99.90;;;;;;8365142;28;20224;-68
2023/07/05 01:43:28;;;;;;;17.70;13.83;;;9.60;99.90;;;;;;8347841;28;20184;-67
2023/07/05 01:47:47;;;;;;;18.40;13.77;;;9.60;1.00;;;;;;8363527;28;20189;-67
2023/07/05 01:52:01;;;;;;;19.43;13.40;;;9.60;1.00;;;;;;8349763;28;20222;-67
2023/07/05 01:56:06;;;;;;;18.67;14.50;;;9.60;1.00;;;;;;8363622;28;20181;-68
2023/07/05 02:00:12;;;;;;;19.77;15.10;;;9.60;1.00;;;;;;8366346;28;20204;-67
2023/07/05 02:04:13;;;;;;;18.83;14.07;;;9.60;99.90;;;;;;8342705;28;20213;-66
2023/07/05 02:08:15;;;;;;;21.27;14.17;;;9.60;99.90;;;;;;8369754;28;20196;-66
2023/07/05 02:12:15;;;;;;;18.70;13.43;;;9.60;99.90;;;;;;8361176;28;20185;-66
2023/07/05 02:16:16;;;;;;;16.53;13.00;;;9.50;99.90;;;;;;8363352;28;20189;-67
2023/07/05 02:20:17;;;;;;;17.00;13.23;;;9.50;99.90;;;;;;8346038;28;20185;-66
2023/07/05 02:24:18;;;;;;;19.67;14.87;;;9.40;99.90;;;;;;8364321;28;20212;-66
2023/07/05 02:28:22;;;;;;;20.23;14.47;;;9.40;99.90;;;;;;8366937;28;20185;-67
2023/07/05 02:32:24;;;;;;;20.37;14.97;;;9.40;1.00;;;;;;8362972;28;20230;-66
2023/07/05 02:36:28;;;;;;;18.03;13.43;;;9.50;99.90;;;;;;8364513;28;20300;-67
2023/07/05 02:40:28;;;;;;;16.47;12.47;;;9.50;1.00;;;;;;8346809;28;20220;-67
2023/07/05 02:44:30;;;;;;;18.40;14.37;;;9.40;1.00;;;;;;8346432;28;20193;-67
2023/07/05 02:48:32;;;;;;;18.70;14.13;;;9.50;18.40;;;;;;8359947;28;20186;-66
2023/07/05 02:52:33;;;;;;;18.17;14.30;;;9.50;99.90;;;;;;8345974;28;20340;-67
2023/07/05 02:56:34;;;;;;;23.40;14.87;;;9.60;99.90;;;;;;8362131;28;20217;-67
2023/07/05 03:00:36;;;;;;;21.27;15.53;;;9.70;99.90;;;;;;8350391;28;20189;-68
2023/07/05 03:04:37;;;;;;;19.43;14.47;;;9.80;38.00;;;;;;8356962;28;20209;-70
2023/07/05 03:08:38;;;;;;;20.10;15.20;;;9.90;1.00;;;;;;8359327;28;20190;-69
2023/07/05 03:12:40;;;;;;;20.80;14.90;;;10.00;99.90;;;;;;8365275;28;20213;-69
2023/07/05 03:16:41;;;;;;;20.00;14.00;;;10.10;99.90;;;;;;8352694;28;20244;-69
2023/07/05 03:20:46;;;;;;;16.37;13.13;;;10.30;1.00;;;;;;8366720;28;20181;-69
2023/07/05 03:24:49;;;;;;;17.83;14.13;;;10.60;99.90;;;;;;8349931;28;20247;-69
2023/07/05 03:28:50;;;;;;;16.93;13.07;;;10.90;77.40;;;;;;8368881;28;20220;-69
2023/07/05 03:32:51;;;;;;;19.20;13.77;;;11.10;1.00;;;;;;8352316;28;20235;-69
2023/07/05 03:36:51;;;;;;;24.73;16.10;;;11.40;1.00;;;;;;8368269;28;20205;-68
2023/07/05 03:41:10;;;;;;;21.10;15.40;;;11.80;99.90;;;;;;8348629;28;20188;-70
2023/07/05 03:45:11;;;;;;;20.13;15.00;;;12.10;42.70;;;;;;8370829;28;20273;-69
2023/07/05 03:49:18;;;;;;;18.33;13.77;;;12.20;1.00;;;;;;8367771;28;20188;-69
2023/07/05 03:53:19;;;;;;;19.27;15.33;;;12.20;1.00;;;;;;8352277;28;20181;-68
2023/07/05 03:57:20;;;;;;;22.27;14.93;;;12.30;1.00;;;;;;8365393;28;20209;-68
2023/07/05 04:01:26;;;;;;;19.20;14.40;;;12.60;1.00;;;;;;8365539;28;20185;-70
2023/07/05 04:05:27;;;;;;;20.13;15.00;;;13.40;99.90;;;;;;8352272;28;20208;-71
2023/07/05 04:09:28;;;;;;;19.97;15.00;;;14.30;99.90;;;;;;8353473;28;20213;-70
2023/07/05 04:13:29;;;;;;;17.97;14.03;;;15.40;99.90;;;;;;8354441;28;20263;-69
2023/07/05 04:17:30;;;;;;;19.67;13.60;;;16.20;99.90;;;;;;8366053;28;20311;-70
2023/07/05 04:21:31;;;;;;;19.37;15.13;;;16.90;53.70;;;;;;8364614;28;20186;-69
2023/07/05 04:25:32;;;;;;;19.60;15.83;;;17.00;6.50;;;;;;8351763;28;20189;-71
2023/07/05 04:29:34;;;;;;;20.17;15.73;;;16.70;1.00;;;;;;8368774;28;20205;-70
2023/07/05 04:33:35;;;;;;;18.90;14.70;;;17.10;1.00;;;;;;8352701;28;20465;-67
2023/07/05 04:37:36;;;;;;;25.23;16.23;;;17.90;1.00;;;;;;8349798;28;20317;-69
2023/07/05 04:41:37;;;;;;;21.60;16.63;;;18.70;1.00;;;;;;8367945;28;20193;-69
2023/07/05 04:45:38;;;;;;;24.33;16.00;;;19.50;1.00;;;;;;8352448;28;20216;-70
2023/07/05 04:49:38;;;;;;;19.97;15.13;;;20.00;1.00;;;;;;8355583;28;20192;-69
2023/07/05 04:53:39;;;;;;;18.40;15.23;;;20.60;1.00;;;;;;8361736;28;20193;-69
2023/07/05 04:57:42;;;;;;;19.30;15.53;;;20.90;1.00;;;;;;8365111;28;20236;-69
2023/07/05 05:01:43;;;;;;;18.03;15.20;;;21.20;1.00;;;;;;8359043;28;20322;-71
2023/07/05 05:05:45;;;;;;;18.93;15.13;;;21.50;1.00;;;;;;8366579;28;20205;-70
2023/07/05 05:09:49;;;;;;;19.83;16.27;;;21.90;1.00;;;;;;8365517;28;20212;-67
2023/07/05 05:13:50;;;;;;;23.77;16.70;;;22.20;1.00;;;;;;8369217;28;20205;-72
2023/07/05 05:17:51;;;;;;;21.87;17.10;;;21.90;1.00;;;;;;8369811;28;20205;-70
2023/07/05 05:21:52;;;;;;;21.37;17.20;;;21.10;1.00;;;;;;8351467;28;20185;-67
2023/07/05 05:25:53;;;;;;;26.93;17.53;;;20.70;1.00;;;;;;8364301;28;20182;-68
2023/07/05 05:29:54;;;;;;;26.77;18.20;;;20.30;1.00;;;;;;8344958;28;20200;-70
2023/07/05 05:33:55;;;;;;;26.40;18.60;;;19.90;1.00;;;;;;8365525;28;20197;-69
2023/07/05 05:37:56;;;;;;;28.53;20.13;;;19.60;1.00;;;;;;8362672;28;20201;-71
2023/07/05 05:41:57;;;;;;;25.77;18.27;;;19.60;1.00;;;;;;8347536;28;20257;-69
2023/07/05 05:45:58;;;;;;;27.10;18.63;;;19.70;1.00;;;;;;8349264;28;20188;-68
2023/07/05 05:49:58;;;;;;;18.93;15.93;;;19.80;1.00;;;;;;8361947;28;20268;-71
2023/07/05 05:53:59;;;;;;;22.23;15.97;;;19.90;1.00;;;;;;8351583;28;20271;-70
2023/07/05 05:58:04;;;;;;;23.50;15.67;;;20.10;1.00;;;;;;8353195;28;20213;-69
2023/07/05 06:02:06;;;;;;;18.77;14.73;;;20.30;1.00;;;;;;8362183;28;20182;-71
2023/07/05 06:06:06;;;;;;;19.87;14.60;;;20.40;1.00;;;;;;8344659;28;20206;-72
2023/07/05 06:10:09;;;;;;;19.63;13.93;;;20.60;1.00;;;;;;8361547;28;20272;-66
2023/07/05 06:14:10;;;;;;;19.53;14.63;;;21.00;1.00;;;;;;8363674;28;20185;-68
2023/07/05 06:18:14;;;;;;;19.33;13.60;;;21.20;1.00;;;;;;8343829;28;20217;-69
2023/07/05 06:22:15;;;;;;;16.20;13.50;;;21.50;1.00;;;;;;8349377;28;20185;-71
2023/07/05 06:26:19;;;;;;;16.43;13.13;;;21.70;1.00;;;;;;8359089;28;20178;-68
2023/07/05 06:30:20;;;;;;;17.83;13.43;;;21.90;1.00;;;;;;8361132;28;20188;-71
2023/07/05 06:34:23;;;;;;;16.03;13.53;;;22.00;1.00;;;;;;8364766;28;20256;-70
2023/07/05 06:38:24;;;;;;;14.93;12.63;;;22.20;1.00;;;;;;8353384;28;20296;-72
2023/07/05 06:42:34;;;;;;;18.70;13.43;;;22.30;1.00;;;;;;8371901;28;20251;-70
2023/07/05 06:46:35;;;;;;;18.67;13.73;;;22.50;1.00;;;;;;8354383;28;20210;-70
2023/07/05 06:50:36;;;;;;;18.67;14.10;;;22.70;1.00;;;;;;8372139;28;20189;-69
2023/07/05 06:54:37;;;;;;;18.17;13.93;;;23.00;1.00;;;;;;8367010;28;20256;-70
2023/07/05 06:58:38;;;;;;;18.13;14.03;;;23.10;1.00;;;;;;8367811;28;20221;-68
2023/07/05 07:02:39;;;;;;;17.43;13.57;;;23.10;1.00;;;;;;8368370;28;20182;-70
2023/07/05 07:06:40;;;;;;;18.57;14.00;;;23.30;1.00;;;;;;8370716;28;20185;-70
2023/07/05 07:10:41;;;;;;;22.63;14.13;;;23.40;1.00;;;;;;8355383;28;20201;-68
2023/07/05 07:14:44;;;;;;;18.67;14.27;;;23.60;1.00;;;;;;8371132;28;20182;-69
2023/07/05 07:18:47;;;;;;;16.53;14.27;;;23.80;1.00;;;;;;8353352;28;20230;-69
2023/07/05 07:22:48;;;;;;;17.57;13.90;;;23.90;1.00;;;;;;8349330;28;20184;-67
2023/07/05 07:26:49;;;;;;;17.20;13.50;;;24.20;1.00;;;;;;8368673;28;20193;-69
2023/07/05 07:30:50;;;;;;;18.73;13.30;;;24.50;1.00;;;;;;8370992;28;20185;-69
2023/07/05 07:34:53;;;;;;;15.93;13.47;;;24.80;1.00;;;;;;8352858;28;20193;-69
2023/07/05 07:38:58;;;;;;;17.13;13.10;;;25.20;1.00;;;;;;8369469;28;20213;-70
2023/07/05 07:42:59;;;;;;;16.47;13.20;;;25.60;1.00;;;;;;8350264;28;20193;-71
2023/07/05 07:47:03;;;;;;;16.33;13.80;;;26.10;1.00;;;;;;8366741;28;20196;-70
2023/07/05 07:51:04;;;;;;;13.75;12.35;;;26.60;1.00;;;;;;8353289;28;20212;-71
2023/07/05 07:55:05;;;;;;;16.48;13.20;;;26.90;1.00;;;;;;8371588;28;20216;-70
2023/07/05 07:59:07;;;;;;;16.58;12.20;;;27.20;1.00;;;;;;8352260;28;20206;-70
2023/07/05 08:03:08;;;;;;;16.98;12.45;;;27.50;1.00;;;;;;8352483;28;20203;-70
2023/07/05 08:07:14;;;;;;;15.60;12.95;;;27.60;1.00;;;;;;8355785;28;20189;-69
2023/07/05 08:11:22;;;;;;;13.80;11.75;;;27.70;1.00;;;;;;8367174;28;20190;-67
2023/07/05 08:15:26;;;;;;;15.35;11.30;;;27.70;1.00;;;;;;8356177;28;20190;-69
2023/07/05 08:19:27;;;;;;;14.70;11.32;;;27.30;1.00;;;;;;8347372;28;20229;-71
2023/07/05 08:23:28;;;;;;;14.25;11.05;;;27.00;1.00;;;;;;8364864;28;20193;-70
2023/07/05 08:27:29;;;;;;;13.30;10.65;;;26.90;1.00;;;;;;8365730;28;20193;-71
2023/07/05 08:31:30;;;;;;;12.80;9.63;;;27.40;1.00;;;;;;8359263;28;20185;-68
2023/07/05 08:35:40;;;;;;;14.15;9.88;;;27.50;1.00;;;;;;8357632;28;20181;-70
2023/07/05 08:39:41;;;;;;;14.60;9.35;;;27.60;1.00;;;;;;8352509;28;20233;-70
2023/07/05 08:43:52;;;;;;;12.00;9.07;;;27.60;1.00;;;;;;8369372;28;20196;-71
2023/07/05 08:47:57;;;;;;;11.93;8.85;;;27.50;1.00;;;;;;8365073;28;20185;-69
2023/07/05 08:51:59;;;;;;;8.90;7.53;;;27.70;1.00;;;;;;8368668;28;20246;-69
2023/07/05 08:56:09;;;;;;;11.13;7.80;;;28.10;1.00;;;;;;8351394;28;20263;-69
2023/07/05 09:00:27;;;;;;;13.32;8.98;;;28.80;1.00;;;;;;8364336;28;20205;-69
2023/07/05 09:04:36;;;;;;;9.48;7.55;;;29.30;1.00;;;;;;8356900;28;20240;-71
2023/07/05 09:08:48;;;;;;;9.00;6.35;;;29.10;1.00;;;;;;8350435;28;20225;-70
2023/07/05 09:13:03;;;;;;;9.57;6.95;;;29.50;1.00;;;;;;8353023;28;20189;-72
2023/07/05 09:17:16;;;;;;;8.15;7.35;;;30.00;1.00;;;;;;8352799;28;20198;-74
2023/07/05 09:21:17;;;;;;;7.43;6.60;;;30.60;1.00;;;;;;8362843;28;20260;-71
2023/07/05 09:25:22;;;;;;;8.07;5.28;;;31.10;1.00;;;;;;8349880;28;20174;-69
2023/07/05 09:29:32;;;;;;;5.90;3.60;;;31.10;1.00;;;;;;8366483;28;20207;-74
2023/07/05 09:33:45;;;;;;;6.07;3.38;;;31.30;1.00;;;;;;8356499;28;20189;-70
2023/07/05 09:38:00;;;;;;;4.68;3.63;;;31.70;1.00;;;;;;8369015;28;20193;-69
2023/07/05 09:42:03;;;;;;;3.95;3.55;;;31.80;99.90;;;;;;8349201;28;20183;-70
2023/07/05 09:46:13;;;;;;;3.70;3.00;;;31.90;99.90;;;;;;8366234;28;20180;-69
2023/07/05 09:50:18;;;;;;;5.50;3.25;;;32.20;99.90;;;;;;8347287;28;20204;-71
2023/07/05 09:54:29;;;;;;;5.95;3.25;;;32.20;99.90;;;;;;8336223;28;20238;-71
2023/07/05 09:58:33;;;;;;;5.90;3.10;;;31.60;99.90;;;;;;8351341;28;20252;-70
2023/07/05 10:02:34;;;;;;;4.65;3.15;;;31.40;99.90;;;;;;8351748;28;20189;-70
2023/07/05 10:06:50;;;;;;;4.15;3.03;;;30.90;99.90;;;;;;8352683;28;20335;-70
2023/07/05 10:10:51;;;;;;;3.30;3.00;;;30.60;99.90;;;;;;8365912;28;20185;-73
2023/07/05 10:14:56;;;;;;;4.82;3.30;;;30.60;99.90;;;;;;8355331;28;20182;-68
2023/07/05 10:18:57;;;;;;;5.75;3.40;;;30.70;99.90;;;;;;8347461;28;20213;-68
2023/07/05 10:23:04;;;;;;;4.85;3.72;;;30.90;99.90;;;;;;8346171;28;20185;-70
2023/07/05 10:27:24;;;;;;;5.47;3.22;;;31.00;99.90;;;;;;8366040;28;20221;-69
2023/07/05 10:31:28;;;;;;;5.03;3.25;;;30.40;99.90;;;;;;8352365;28;20174;-67
2023/07/05 10:35:31;;;;;;;4.50;3.45;;;30.30;99.90;;;;;;8350968;28;20190;-68
2023/07/05 10:39:33;;;;;;;7.85;3.00;;;30.60;99.90;;;;;;8349410;28;20258;-69
2023/07/05 10:43:34;;;;;;;3.35;2.58;;;31.10;99.90;;;;;;8362203;28;20235;-73
2023/07/05 10:47:36;;;;;;;4.07;2.58;;;31.70;99.90;;;;;;8348058;28;20197;-71
2023/07/05 10:51:42;;;;;;;3.53;1.90;;;32.10;99.90;;;;;;8351271;28;20211;-69
2023/07/05 10:56:10;;;;;;;7.95;2.03;;;32.60;99.90;;;;;;8351439;28;20193;-70
2023/07/05 11:00:21;;;;;;;5.28;2.08;;;32.70;99.90;;;;;;8353160;28;20216;-73
2023/07/05 11:04:28;;;;;;;4.10;2.08;;;32.70;99.90;;;;;;8343878;28;20239;-69
2023/07/05 11:08:37;;;;;;;3.90;2.30;;;32.30;99.90;;;;;;8351825;28;20240;-72
2023/07/05 11:12:38;;;;;;;3.28;2.08;;;32.00;99.90;;;;;;8349786;28;20253;-71
2023/07/05 11:16:45;;;;;;;5.88;2.20;;;31.60;99.90;;;;;;8352318;28;20184;-72
2023/07/05 11:20:53;;;;;;;3.70;1.80;;;31.20;99.90;;;;;;8353482;28;20189;-73
2023/07/05 11:24:54;;;;;;;3.08;2.00;;;30.80;99.90;;;;;;8356021;28;20185;-74
2023/07/05 11:28:55;;;;;;;4.40;1.60;;;30.70;99.90;;;;;;8357097;28;20185;-69
2023/07/05 11:33:02;;;;;;;2.65;1.63;;;30.60;99.90;;;;;;8371302;28;20247;-70
2023/07/05 11:37:06;;;;;;;2.47;2.03;;;30.30;99.90;;;;;;8356828;28;20205;-71
2023/07/05 11:41:08;;;;;;;2.60;1.75;;;30.00;99.90;;;;;;8355367;28;20247;-70
2023/07/05 11:45:15;;;;;;;2.08;1.85;;;30.10;99.90;;;;;;8350524;28;20288;-70
2023/07/05 11:49:38;;;;;;;3.33;1.77;;;30.50;99.90;;;;;;8371381;28;20189;-70
2023/07/05 11:53:39;;;;;;;2.90;1.77;;;31.00;99.90;;;;;;8368366;28;20185;-70
2023/07/05 11:57:51;;;;;;;1.95;1.48;;;31.30;99.90;;;;;;8367667;28;20217;-73
2023/07/05 12:01:52;;;;;;;3.67;2.03;;;31.50;99.90;;;;;;8352269;28;20178;-75
2023/07/05 12:05:56;;;;;;;4.90;2.30;;;31.80;99.90;;;;;;8348994;28;20205;-72
2023/07/05 12:09:58;;;;;;;3.17;1.90;;;31.90;99.90;;;;;;8368004;28;20186;-70
2023/07/05 12:14:04;;;;;;;2.85;2.40;;;31.80;99.90;;;;;;8357522;28;20181;-66
2023/07/05 12:18:05;;;;;;;2.78;2.03;;;31.60;1.00;;;;;;8352992;28;20202;-67
2023/07/05 12:22:20;;;;;;;2.70;1.80;;;31.40;99.90;;;;;;8351608;28;20191;-70
2023/07/05 12:26:29;;;;;;;5.30;2.20;;;31.30;99.90;;;;;;8370211;28;20209;-73
2023/07/05 12:30:40;;;;;;;3.30;2.08;;;31.20;99.90;;;;;;8347874;28;20255;-74
2023/07/05 12:34:41;;;;;;;3.03;2.30;;;31.20;99.90;;;;;;8351961;28;20223;-73
2023/07/05 12:38:45;;;;;;;3.70;2.50;;;31.10;99.90;;;;;;8365122;28;20218;-71
2023/07/05 12:42:56;;;;;;;2.80;1.90;;;30.90;99.90;;;;;;8355150;28;20182;-70
2023/07/05 12:47:17;;;;;;;2.75;2.15;;;30.70;99.90;;;;;;8357773;28;20186;-74
2023/07/05 12:51:22;;;;;;;3.45;2.72;;;30.40;99.90;;;;;;8369468;28;20190;-70
2023/07/05 12:55:25;;;;;;;3.40;2.80;;;30.20;99.90;;;;;;8373066;28;20181;-72
2023/07/05 12:59:36;;;;;;;5.00;2.70;;;30.60;99.90;;;;;;8353102;28;20223;-73
2023/07/05 13:03:44;;;;;;;3.30;2.60;;;30.90;99.90;;;;;;8367290;28;20202;-70
2023/07/05 13:07:48;;;;;;;4.57;2.75;;;30.80;99.90;;;;;;8350493;28;20177;-71
2023/07/05 13:12:01;;;;;;;3.45;2.53;;;30.50;99.90;;;;;;8358622;28;20201;-72
2023/07/05 13:16:24;;;;;;;3.40;2.53;;;30.20;99.90;;;;;;8349295;28;20189;-69
2023/07/05 13:20:27;;;;;;;5.43;2.95;;;29.90;99.90;;;;;;8357834;28;20209;-69
2023/07/05 13:24:31;;;;;;;4.00;2.92;;;29.70;99.90;;;;;;8347525;28;20193;-72
2023/07/05 13:28:32;;;;;;;10.20;3.40;;;29.20;99.90;;;;;;8365951;28;20213;-69
2023/07/05 13:32:41;;;;;;;5.13;2.97;;;28.70;99.90;;;;;;8364629;28;20181;-68
2023/07/05 13:36:43;;;;;;;4.85;3.38;;;28.10;99.90;;;;;;8367445;28;20262;-69
2023/07/05 13:41:05;;;;;;;8.00;3.60;;;27.50;99.90;;;;;;8350465;28;20329;-68
2023/07/05 13:55:31;;;;;;;7.20;2.70;;;23.40;1.00;;;;;;8363769;28;20277;-69
2023/07/05 13:59:32;;;;;;;5.10;2.07;;;22.20;1.00;;;;;;8352694;28;20217;-69
2023/07/05 14:03:33;;;;;;;3.60;2.00;;;21.40;18.30;;;;;;8351869;28;20296;-70
2023/07/05 14:07:34;;;;;;;4.80;2.43;;;21.20;56.40;;;;;;8353080;28;20209;-69
2023/07/05 14:11:39;;;;;;;5.43;2.13;;;21.40;38.80;;;;;;8346350;28;20189;-70
2023/07/05 14:15:41;;;;;;;7.77;2.17;;;22.00;16.30;;;;;;8348186;28;20268;-68
2023/07/05 14:19:45;;;;;;;6.03;2.07;;;22.30;7.40;;;;;;8365221;28;20212;-69
2023/07/05 14:23:46;;;;;;;7.27;2.20;;;22.50;25.30;;;;;;8364147;28;20186;-69
2023/07/05 14:27:47;;;;;;;3.40;2.00;;;22.40;44.70;;;;;;8352117;28;20184;-70
2023/07/05 14:31:49;;;;;;;4.97;2.10;;;22.40;54.20;;;;;;8347565;28;20207;-68
2023/07/05 14:35:53;;;;;;;6.60;2.03;;;22.40;71.20;;;;;;8347501;28;20198;-70
2023/07/05 14:39:54;;;;;;;3.77;1.73;;;22.60;99.90;;;;;;8346523;28;20209;-69
2023/07/05 14:43:55;;;;;;;4.13;2.00;;;23.30;99.90;;;;;;8366648;28;20185;-69
2023/07/05 14:47:58;;;;;;;4.27;1.80;;;24.20;54.00;;;;;;8348877;28;20197;-73
2023/07/05 14:51:59;;;;;;;2.77;1.80;;;24.40;19.60;;;;;;8356418;28;20177;-71
2023/07/05 14:56:00;;;;;;;3.00;1.50;;;24.40;22.50;;;;;;8356449;28;20186;-73
2023/07/05 15:00:00;;;;;;;4.77;1.40;;;24.50;22.10;;;;;;8360425;28;20213;-71
2023/07/05 15:04:02;;;;;;;2.83;1.90;;;24.50;26.10;;;;;;8373241;28;20208;-72
2023/07/05 15:08:05;;;;;;;3.67;1.70;;;24.40;1.00;;;;;;8357580;28;20196;-72
2023/07/05 15:12:09;;;;;;;3.93;2.30;;;24.40;1.00;;;;;;8353556;28;20266;-70
2023/07/05 15:16:12;;;;;;;1.80;1.63;;;24.30;1.00;;;;;;8359518;28;20239;-69
2023/07/05 15:20:14;;;;;;;5.10;2.17;;;24.50;1.00;;;;;;8355401;28;20206;-72
2023/07/05 15:24:15;;;;;;;2.00;1.80;;;24.50;1.00;;;;;;8371904;28;20264;-70
2023/07/05 15:28:16;;;;;;;4.03;2.17;;;24.90;1.00;;;;;;8356692;28;20189;-71
2023/07/05 15:32:17;;;;;;;4.30;1.80;;;25.30;1.00;;;;;;8356370;28;20188;-71
2023/07/05 15:36:21;;;;;;;4.67;2.37;;;25.60;1.00;;;;;;8368753;28;20267;-70
2023/07/05 15:40:22;;;;;;;4.60;2.43;;;25.90;1.00;;;;;;8351638;28;20240;-69
2023/07/05 15:44:23;;;;;;;4.28;2.03;;;26.10;1.00;;;;;;8351011;28;20184;-70
2023/07/05 15:48:24;;;;;;;3.53;2.25;;;26.30;1.00;;;;;;8353056;28;20281;-71
2023/07/05 15:52:25;;;;;;;3.65;2.00;;;26.60;1.00;;;;;;8352909;28;20177;-67
2023/07/05 15:56:26;;;;;;;2.22;2.00;;;26.90;1.00;;;;;;8354500;28;20280;-69
2023/07/05 16:00:32;;;;;;;4.00;2.40;;;27.20;1.00;;;;;;8353531;28;20212;-70
2023/07/05 16:04:33;;;;;;;3.80;2.45;;;27.00;1.00;;;;;;8349307;28;20209;-71
2023/07/05 16:08:34;;;;;;;3.05;2.50;;;26.80;1.00;;;;;;8364689;28;20178;-70
2023/07/05 16:12:35;;;;;;;3.47;2.70;;;26.50;1.00;;;;;;8368419;28;20200;-70
2023/07/05 16:16:36;;;;;;;3.28;2.67;;;26.20;1.00;;;;;;8367369;28;20182;-67
2023/07/05 16:20:37;;;;;;;3.53;2.45;;;26.00;1.00;;;;;;8353204;28;20217;-68
2023/07/05 16:24:38;;;;;;;3.10;2.60;;;25.90;1.00;;;;;;8357366;28;20181;-71
2023/07/05 16:28:40;;;;;;;3.92;2.58;;;25.80;1.00;;;;;;8367081;28;20182;-69
2023/07/05 16:32:42;;;;;;;4.03;2.60;;;25.80;1.00;;;;;;8351139;28;20195;-72
2023/07/05 16:36:42;;;;;;;5.32;3.10;;;25.80;1.00;;;;;;8353826;28;20182;-71
2023/07/05 16:40:43;;;;;;;3.60;2.83;;;25.90;1.00;;;;;;8347102;28;20204;-68
2023/07/05 16:44:44;;;;;;;5.85;3.00;;;26.30;1.00;;;;;;8348335;28;20173;-72
2023/07/05 16:48:45;;;;;;;4.10;3.08;;;26.70;1.00;;;;;;8367552;28;20196;-71
2023/07/05 16:52:47;;;;;;;4.07;3.15;;;26.90;1.00;;;;;;8351468;28;20186;-71
2023/07/05 16:56:50;;;;;;;5.40;3.80;;;27.10;1.00;;;;;;8369830;28;20197;-69
2023/07/05 17:01:02;;;;;;;4.13;3.42;;;27.00;1.00;;;;;;8365375;28;20182;-68
2023/07/05 17:05:03;;;;;;;5.07;3.40;;;26.70;1.00;;;;;;8357067;28;20218;-70
2023/07/05 17:09:07;;;;;;;7.40;3.95;;;26.10;1.00;;;;;;8352603;28;20235;-69
2023/07/05 17:13:09;;;;;;;5.65;4.20;;;25.50;1.00;;;;;;8365054;28;20197;-68
2023/07/05 17:17:13;;;;;;;4.30;3.50;;;25.00;1.00;;;;;;8366045;28;20193;-68
2023/07/05 17:21:15;;;;;;;4.57;3.90;;;24.80;1.00;;;;;;8362048;28;20178;-69
2023/07/05 17:25:16;;;;;;;6.03;3.90;;;24.80;1.00;;;;;;8352733;28;20268;-70
2023/07/05 17:29:20;;;;;;;7.10;3.40;;;25.60;1.00;;;;;;8349196;28;20193;-70
2023/07/05 17:33:20;;;;;;;5.80;4.13;;;27.20;1.00;;;;;;8362946;28;20306;-70
2023/07/05 17:37:21;;;;;;;4.97;1.85;;;28.00;1.00;;;;;;8368933;28;20201;-71
2023/07/05 17:41:24;;;;;;;2.83;1.45;;;27.60;1.00;;;;;;8356255;28;20180;-71
2023/07/05 17:45:25;;;;;;;3.35;1.70;;;27.30;1.00;;;;;;8347753;28;20213;-69
2023/07/05 17:49:26;;;;;;;3.67;1.92;;;27.40;1.00;;;;;;8368163;28;20185;-68
2023/07/05 17:53:27;;;;;;;3.65;1.58;;;26.50;1.00;;;;;;8349451;28;20431;-67
2023/07/05 17:57:28;;;;;;;3.90;1.80;;;26.00;1.00;;;;;;8350073;28;20274;-69
2023/07/05 18:01:29;;;;;;;2.58;1.88;;;25.90;1.00;;;;;;8364073;28;20185;-71
2023/07/05 18:05:34;;;;;;;3.00;1.60;;;25.90;1.00;;;;;;8348753;28;20208;-70
2023/07/05 18:09:35;;;;;;;1.83;1.57;;;25.90;1.00;;;;;;8347426;28;20195;-71
2023/07/05 18:13:38;;;;;;;4.28;1.88;;;25.90;1.00;;;;;;8350017;28;20178;-71
2023/07/05 18:17:38;;;;;;;1.88;1.50;;;25.90;1.00;;;;;;8351922;28;20255;-70
2023/07/05 18:21:39;;;;;;;2.33;1.50;;;26.20;1.00;;;;;;8350016;28;20177;-69
2023/07/05 18:25:41;;;;;;;1.80;1.65;;;26.90;99.90;;;;;;8363265;28;20188;-70
2023/07/05 18:29:42;;;;;;;3.30;1.70;;;27.10;99.90;;;;;;8354281;28;20208;-70
2023/07/05 18:33:43;;;;;;;2.33;1.80;;;27.10;99.90;;;;;;8353275;28;20232;-69
2023/07/05 18:37:44;;;;;;;3.17;1.85;;;26.50;99.90;;;;;;8360747;28;20204;-68
2023/07/05 18:41:45;;;;;;;5.47;1.60;;;25.40;99.90;;;;;;8372345;28;20173;-68
2023/07/05 18:45:52;;;;;;;5.30;1.53;;;24.60;99.90;;;;;;8357276;28;20189;-69
2023/07/05 18:49:56;;;;;;;2.23;1.67;;;24.70;1.00;;;;;;8370798;28;20281;-71
2023/07/05 18:53:56;;;;;;;1.50;1.30;;;24.90;1.00;;;;;;8366844;28;20618;-68
2023/07/05 18:57:57;;;;;;;3.17;1.53;;;24.80;1.00;;;;;;8354259;28;20248;-69
2023/07/05 19:01:58;;;;;;;2.40;1.93;;;24.50;1.00;;;;;;8365902;28;20230;-67
2023/07/05 19:06:05;;;;;;;2.57;1.77;;;23.80;1.00;;;;;;8353852;28;20205;-67
2023/07/05 19:10:06;;;;;;;3.00;2.00;;;23.10;1.00;;;;;;8354026;28;20193;-67
2023/07/05 19:14:07;;;;;;;3.27;1.90;;;22.50;1.00;;;;;;8367425;28;20292;-67
2023/07/05 19:18:08;;;;;;;2.40;1.80;;;22.10;1.00;;;;;;8365008;28;20209;-67
2023/07/05 19:22:10;;;;;;;3.00;1.90;;;21.70;1.00;;;;;;8371827;28;20181;-67
2023/07/05 19:26:16;;;;;;;2.93;1.67;;;21.30;1.00;;;;;;8354145;28;20231;-67
2023/07/05 19:30:17;;;;;;;2.10;1.60;;;20.90;1.00;;;;;;8368905;28;20177;-67
2023/07/05 19:34:21;;;;;;;2.27;1.97;;;20.60;1.00;;;;;;8356619;28;20266;-68
2023/07/05 19:38:21;;;;;;;2.77;2.07;;;20.30;1.00;;;;;;8354138;28;20217;-65
2023/07/05 19:42:22;;;;;;;2.80;2.40;;;20.10;1.00;;;;;;8354128;28;20177;-65
2023/07/05 19:46:24;;;;;;;2.87;2.03;;;20.00;1.00;;;;;;8368804;28;20185;-65
2023/07/05 19:50:27;;;;;;;5.43;2.17;;;20.00;1.00;;;;;;8358600;28;20177;-65
2023/07/05 19:54:28;;;;;;;4.23;2.27;;;19.90;1.00;;;;;;8354210;28;20191;-65
2023/07/05 19:58:30;;;;;;;3.27;2.30;;;19.80;1.00;;;;;;8369791;28;20213;-65
2023/07/05 20:02:31;;;;;;;4.63;2.40;;;19.60;1.00;;;;;;8352407;28;20193;-65
2023/07/05 20:06:32;;;;;;;3.43;2.10;;;19.40;1.00;;;;;;8364525;28;20182;-64
2023/07/05 20:10:35;;;;;;;2.87;2.40;;;19.20;1.00;;;;;;8345810;28;20192;-64
2023/07/05 20:14:36;;;;;;;3.70;1.80;;;19.00;1.00;;;;;;8363425;28;20207;-64
2023/07/05 20:18:37;;;;;;;3.43;1.90;;;18.80;1.00;;;;;;8347104;28;20218;-65
2023/07/05 20:22:41;;;;;;;2.93;2.17;;;18.50;1.00;;;;;;8350004;28;20182;-65
2023/07/05 20:26:42;;;;;;;2.83;2.17;;;18.30;1.00;;;;;;8366118;28;20174;-65
2023/07/05 20:30:43;;;;;;;4.07;2.43;;;18.30;1.00;;;;;;8371292;28;20212;-65
2023/07/05 20:34:44;;;;;;;4.67;2.70;;;18.40;1.00;;;;;;8349070;28;20229;-65
2023/07/05 20:38:46;;;;;;;3.80;2.37;;;18.40;1.00;;;;;;8346286;28;20295;-65
2023/07/05 20:42:47;;;;;;;2.40;1.97;;;18.30;1.00;;;;;;8350360;28;20177;-64
2023/07/05 20:46:51;;;;;;;4.23;2.83;;;18.20;1.00;;;;;;8351400;28;20239;-64
2023/07/05 20:50:59;;;;;;;4.07;2.87;;;18.10;1.00;;;;;;8366796;28;20188;-65
2023/07/05 20:55:00;;;;;;;3.33;2.63;;;18.20;1.00;;;;;;8363468;28;20190;-65
2023/07/05 20:59:01;;;;;;;5.50;2.60;;;18.20;1.00;;;;;;8346088;28;20220;-65
2023/07/05 21:03:02;;;;;;;3.90;3.07;;;18.20;1.00;;;;;;8349424;28;20205;-65
2023/07/05 21:07:04;;;;;;;3.47;2.67;;;18.20;1.00;;;;;;8351772;28;20272;-65
2023/07/05 21:11:07;;;;;;;4.07;2.93;;;18.10;1.00;;;;;;8347074;28;20185;-65
2023/07/05 21:15:08;;;;;;;4.40;2.83;;;18.00;1.00;;;;;;8366299;28;20238;-65